Time;durP1;ratioP1;P1;durP2;ratioP2;P2;SDS_P1;SDS_P2;PMS_P1;PMS_P2;Temp;Humidity;BMP_temperature;BMP_pressure;BME280_temperature;BME280_humidity;BME280_pressure;Samples;Min_cycle;Max_cycle;Signal;HPM_P1;HPM_P2
2023/05/23 00:01:41;;;;;;;13.25;8.23;;;;;;;14.02;53.14;98229.09;5041695;28;20101;-69
2023/05/23 00:04:08;;;;;;;12.10;7.80;;;;;;;13.99;53.43;98222.25;5040039;28;20432;-69
2023/05/23 00:06:34;;;;;;;13.13;8.38;;;;;;;13.97;53.50;98224.53;5040521;28;20168;-70
2023/05/23 00:09:01;;;;;;;11.15;8.50;;;;;;;13.94;53.86;98226.00;5031596;28;20463;-69
2023/05/23 00:11:27;;;;;;;10.98;7.97;;;;;;;13.92;53.90;98235.72;5036466;28;20073;-68
2023/05/23 00:13:54;;;;;;;12.57;8.23;;;;;;;13.90;53.47;98232.47;5038845;28;20033;-70
2023/05/23 00:16:20;;;;;;;11.13;8.05;;;;;;;13.86;53.82;98215.78;5034149;28;20064;-69
2023/05/23 00:18:46;;;;;;;11.63;8.43;;;;;;;13.84;53.79;98220.78;5040520;28;20029;-69
2023/05/23 00:21:12;;;;;;;12.45;8.30;;;;;;;13.81;53.70;98222.28;5043111;28;20530;-69
2023/05/23 00:23:41;;;;;;;12.35;8.20;;;;;;;13.79;54.12;98223.72;5044398;28;20032;-70
2023/05/23 00:26:07;;;;;;;12.63;8.65;;;;;;;13.77;54.15;98214.94;5049122;28;20025;-69
2023/05/23 00:28:32;;;;;;;11.55;8.45;;;;;;;13.74;54.20;98215.59;5043992;28;20088;-69
2023/05/23 00:30:58;;;;;;;10.57;7.93;;;;;;;13.71;53.87;98219.81;5037590;28;20033;-70
2023/05/23 00:33:23;;;;;;;12.48;8.52;;;;;;;13.68;54.42;98221.25;5043695;28;20084;-69
2023/05/23 00:35:48;;;;;;;10.55;7.82;;;;;;;13.66;54.19;98212.50;5035010;28;20029;-69
2023/05/23 00:38:14;;;;;;;12.55;8.45;;;;;;;13.63;53.97;98206.84;5034861;28;20029;-69
2023/05/23 00:40:40;;;;;;;12.75;8.13;;;;;;;13.61;54.43;98218.19;5034692;28;20489;-70
2023/05/23 00:43:07;;;;;;;14.60;8.73;;;;;;;13.58;54.55;98212.50;5034877;28;20029;-69
2023/05/23 00:45:32;;;;;;;12.55;8.52;;;;;;;13.53;54.47;98217.03;5038752;28;20111;-69
2023/05/23 00:47:58;;;;;;;10.25;7.80;;;;;;;13.50;54.55;98209.41;5043433;28;20076;-70
2023/05/23 00:50:28;;;;;;;13.32;8.43;;;;;;;13.47;54.45;98210.06;5043365;28;20036;-70
2023/05/23 00:52:55;;;;;;;12.10;8.35;;;;;;;13.44;54.46;98216.22;5041115;28;20487;-69
2023/05/23 00:55:21;;;;;;;12.18;7.95;;;;;;;13.40;54.61;98210.50;5039097;28;20041;-70
2023/05/23 00:57:47;;;;;;;10.52;8.00;;;;;;;13.38;54.39;98203.72;5034963;28;20021;-69
2023/05/23 01:00:14;;;;;;;12.32;8.30;;;;;;;13.35;55.01;98205.16;5037768;28;20533;-69
2023/05/23 01:02:43;;;;;;;12.18;8.20;;;;;;;13.32;54.50;98208.53;5047329;28;20377;-69
2023/05/23 01:05:13;;;;;;;10.90;7.90;;;;;;;13.30;54.88;98208.03;5037570;28;20112;-69
2023/05/23 01:07:39;;;;;;;9.70;7.55;;;;;;;13.27;54.96;98200.41;5045519;28;20037;-69
2023/05/23 01:10:05;;;;;;;10.52;7.70;;;;;;;13.24;54.99;98209.34;5036576;28;20036;-69
2023/05/23 01:12:46;;;;;;;13.82;8.00;;;;;;;13.21;54.78;98201.72;5042923;28;20039;-70
2023/05/23 01:15:16;;;;;;;11.82;8.18;;;;;;;13.16;54.86;98204.63;5034367;28;20053;-69
2023/05/23 01:18:02;;;;;;;12.45;8.27;;;;;;;13.15;55.22;98200.25;5044070;28;20054;-70
2023/05/23 01:20:33;;;;;;;14.52;8.23;;;;;;;13.10;55.13;98210.28;5037586;28;20538;-69
2023/05/23 01:23:04;;;;;;;12.70;8.45;;;;;;;13.07;55.02;98216.41;5045329;28;20112;-69
2023/05/23 01:26:03;;;;;;;11.25;7.55;;;;;;;13.05;55.13;98215.91;5053908;28;20104;-69
2023/05/23 01:28:32;;;;;;;11.68;7.97;;;;;;;13.03;55.29;98209.91;5047119;28;20079;-69
2023/05/23 01:31:02;;;;;;;11.68;7.95;;;;;;;13.02;55.13;98207.50;5040836;28;20044;-69
2023/05/23 01:33:29;;;;;;;11.68;8.07;;;;;;;12.99;55.37;98200.69;5038332;28;20044;-70
2023/05/23 01:35:59;;;;;;;11.43;8.35;;;;;;;12.96;55.13;98206.81;5033945;28;20413;-69
2023/05/23 01:38:24;;;;;;;;;;;;;;;12.93;55.44;98199.19;5041892;28;20124;-70
2023/05/23 01:40:50;;;;;;;13.07;8.00;;;;;;;12.89;55.86;98196.28;5043657;28;20007;-69
2023/05/23 01:43:15;;;;;;;9.65;7.90;;;;;;;12.87;55.84;98197.69;5038546;28;20036;-69
2023/05/23 01:45:41;;;;;;;12.43;8.15;;;;;;;12.85;55.67;98194.47;5033886;28;20395;-69
2023/05/23 01:48:08;;;;;;;12.23;8.32;;;;;;;12.82;56.01;98195.91;5037192;28;21009;-69
2023/05/23 01:50:34;;;;;;;10.70;8.13;;;;;;;12.78;55.47;98189.44;5046372;28;20099;-69
2023/05/23 01:53:00;;;;;;;13.32;8.55;;;;;;;12.76;55.73;98188.94;5042536;28;20030;-69
2023/05/23 01:55:26;;;;;;;10.98;8.38;;;;;;;12.74;55.51;98185.69;5033695;28;20116;-69
2023/05/23 01:57:55;;;;;;;14.63;8.90;;;;;;;12.71;55.74;98183.56;5033589;28;20025;-69
2023/05/23 02:00:20;;;;;;;12.80;9.00;;;;;;;12.68;55.89;98185.03;5033081;28;20029;-69
2023/05/23 02:02:46;;;;;;;11.70;8.50;;;;;;;12.67;56.03;98191.66;5042981;28;20029;-69
2023/05/23 02:05:12;;;;;;;11.02;8.45;;;;;;;12.64;56.10;98197.78;5036339;28;20025;-69
2023/05/23 02:07:37;;;;;;;13.15;8.40;;;;;;;12.60;56.12;98189.38;5033221;28;20029;-69
2023/05/23 02:10:04;;;;;;;14.65;8.95;;;;;;;12.58;55.97;98188.03;5042925;28;20029;-69
2023/05/23 02:12:29;;;;;;;13.15;9.30;;;;;;;12.55;55.65;98189.50;5044714;28;20067;-69
2023/05/23 02:14:55;;;;;;;12.82;8.93;;;;;;;12.51;56.37;98191.25;5042400;28;20021;-70
2023/05/23 02:17:21;;;;;;;13.05;8.68;;;;;;;12.47;55.92;98182.81;5031824;28;20363;-70
2023/05/23 02:19:47;;;;;;;11.65;9.05;;;;;;;12.44;56.51;98185.38;5035172;28;20020;-69
2023/05/23 02:22:13;;;;;;;12.55;8.65;;;;;;;12.41;56.32;98186.84;5050192;28;20045;-68
2023/05/23 02:24:39;;;;;;;13.82;9.48;;;;;;;12.38;56.03;98192.13;5040507;28;20550;-69
2023/05/23 02:27:05;;;;;;;15.02;10.13;;;;;;;12.35;56.11;98188.88;5039696;28;20018;-69
2023/05/23 02:29:30;;;;;;;15.77;9.85;;;;;;;12.33;56.43;98190.34;5045642;28;20433;-68
2023/05/23 02:31:55;;;;;;;15.82;9.50;;;;;;;12.29;56.84;98184.66;5040258;28;20029;-68
2023/05/23 02:34:21;;;;;;;15.02;9.98;;;;;;;12.27;56.93;98184.16;5032440;28;20021;-69
2023/05/23 02:36:46;;;;;;;14.48;9.32;;;;;;;12.27;56.56;98180.59;5032388;28;20032;-68
2023/05/23 02:39:12;;;;;;;17.35;10.00;;;;;;;12.24;56.75;98173.78;5036109;28;20040;-69
2023/05/23 02:41:37;;;;;;;13.80;9.40;;;;;;;12.24;56.92;98176.53;5052151;28;20029;-68
2023/05/23 02:44:02;;;;;;;12.60;9.27;;;;;;;12.21;56.46;98177.97;5052134;28;20500;-69
2023/05/23 02:46:28;;;;;;;14.75;9.30;;;;;;;12.19;56.59;98180.22;5050373;28;20033;-69
2023/05/23 02:48:53;;;;;;;14.10;9.35;;;;;;;12.18;57.13;98178.59;5050510;28;20469;-68
2023/05/23 02:51:19;;;;;;;12.57;9.52;;;;;;;12.17;56.98;98176.19;5050550;28;20029;-69
2023/05/23 02:53:45;;;;;;;15.13;9.48;;;;;;;12.13;57.13;98175.19;5050501;28;20024;-69
2023/05/23 02:56:12;;;;;;;14.45;8.93;;;;;;;12.12;57.01;98177.09;5050665;28;20025;-69
2023/05/23 02:58:38;;;;;;;14.93;9.48;;;;;;;12.08;57.00;98162.34;5050199;28;20032;-69
2023/05/23 03:01:04;;;;;;;16.25;9.75;;;;;;;12.08;57.05;98167.06;5050237;28;20029;-69
2023/05/23 03:03:30;;;;;;;18.00;10.18;;;;;;;12.05;57.06;98165.72;5050466;28;20389;-69
2023/05/23 03:05:59;;;;;;;16.90;9.65;;;;;;;12.03;57.54;98166.06;5050155;28;20757;-69
2023/05/23 03:08:25;;;;;;;12.63;9.45;;;;;;;12.04;57.21;98164.09;5049985;28;20550;-69
2023/05/23 03:10:50;;;;;;;13.40;9.18;;;;;;;12.02;56.91;98166.38;5050554;28;20107;-69
2023/05/23 03:13:17;;;;;;;15.70;9.55;;;;;;;12.02;57.46;98164.44;5050101;28;20032;-69
2023/05/23 03:15:42;;;;;;;16.27;9.75;;;;;;;12.01;57.29;98160.06;5050417;28;20470;-69
2023/05/23 03:18:07;;;;;;;16.13;9.45;;;;;;;12.01;57.84;98148.28;5052065;28;20021;-68
2023/05/23 03:20:33;;;;;;;16.73;9.50;;;;;;;12.02;57.26;98155.38;5051965;28;20028;-69
2023/05/23 03:22:58;;;;;;;15.30;9.95;;;;;;;12.02;57.42;98152.66;5051995;28;20389;-68
2023/05/23 03:25:23;;;;;;;12.93;9.57;;;;;;;12.02;57.95;98152.66;5052051;28;20028;-69
2023/05/23 03:27:49;;;;;;;13.15;9.07;;;;;;;12.02;57.45;98153.44;5052149;28;20116;-69
2023/05/23 03:30:14;;;;;;;15.27;9.98;;;;;;;12.03;57.95;98149.56;5051940;28;20465;-69
2023/05/23 03:32:40;;;;;;;18.83;10.18;;;;;;;12.04;57.57;98147.63;5052010;28;20021;-69
2023/05/23 03:35:06;;;;;;;17.58;9.93;;;;;;;12.06;57.90;98148.94;5051909;28;20416;-69
2023/05/23 03:37:31;;;;;;;19.38;11.25;;;;;;;12.09;57.73;98146.69;5052065;28;20038;-69
2023/05/23 03:39:57;;;;;;;20.50;11.27;;;;;;;12.10;57.77;98157.34;5051728;28;20120;-69
2023/05/23 03:42:22;;;;;;;15.27;11.13;;;;;;;12.12;58.21;98151.56;5052116;28;20104;-68
2023/05/23 03:44:47;;;;;;;18.67;11.73;;;;;;;12.13;58.40;98148.50;5051837;28;20086;-69
2023/05/23 03:47:13;;;;;;;16.08;10.45;;;;;;;12.16;58.54;98144.31;5051805;28;20028;-69
2023/05/23 03:49:38;;;;;;;17.85;11.02;;;;;;;12.19;58.11;98155.47;5051877;28;20178;-69
2023/05/23 03:52:04;;;;;;;18.17;11.38;;;;;;;12.21;58.65;98153.22;5048585;28;20060;-69
2023/05/23 03:54:29;;;;;;;16.50;10.55;;;;;;;12.25;58.52;98152.59;5053231;28;20047;-69
2023/05/23 03:56:55;;;;;;;17.80;11.00;;;;;;;12.28;57.99;98154.72;5055435;28;20035;-69
2023/05/23 03:59:21;;;;;;;18.98;11.23;;;;;;;12.31;58.73;98146.66;5055627;28;20032;-69
2023/05/23 04:01:46;;;;;;;19.38;11.38;;;;;;;12.34;58.70;98151.53;5055598;28;20067;-69
2023/05/23 04:04:11;;;;;;;18.83;11.55;;;;;;;12.39;58.65;98152.50;5055482;28;20057;-68
2023/05/23 04:06:37;;;;;;;16.35;11.52;;;;;;;12.43;58.51;98148.81;5055489;28;20025;-69
2023/05/23 04:09:04;;;;;;;18.65;11.07;;;;;;;12.49;58.93;98153.03;5055326;28;20029;-69
2023/05/23 04:11:30;;;;;;;15.75;10.88;;;;;;;12.54;58.59;98141.09;5055436;28;20029;-69
2023/05/23 04:13:55;;;;;;;18.55;11.05;;;;;;;12.59;59.06;98137.41;5055406;28;20029;-69
2023/05/23 04:16:21;;;;;;;17.90;11.13;;;;;;;12.63;58.78;98135.63;5055166;28;20024;-69
2023/05/23 04:18:47;;;;;;;14.80;10.80;;;;;;;12.68;58.88;98132.75;5055205;28;20061;-69
2023/05/23 04:21:12;;;;;;;17.10;10.07;;;;;;;12.72;58.66;98142.00;5055218;28;20024;-69
2023/05/23 04:23:37;;;;;;;15.45;10.90;;;;;;;12.76;58.89;98139.41;5055089;28;20095;-71
2023/05/23 04:26:04;;;;;;;17.95;10.70;;;;;;;12.82;58.95;98143.63;5055094;28;20071;-69
2023/05/23 04:28:30;;;;;;;24.65;13.77;;;;;;;12.85;59.14;98134.75;5055018;28;20082;-70
2023/05/23 04:30:55;;;;;;;25.75;15.15;;;;;;;12.90;59.35;98131.00;5055325;28;20037;-70
2023/05/23 04:33:21;;;;;;;23.30;14.50;;;;;;;12.94;59.76;98138.34;5055054;28;20445;-70
2023/05/23 04:35:48;;;;;;;20.95;13.35;;;;;;;13.00;59.78;98140.94;5055104;28;20362;-70
2023/05/23 04:38:13;;;;;;;20.00;13.07;;;;;;;13.03;60.05;98132.84;5054991;28;20064;-69
2023/05/23 04:40:38;;;;;;;21.15;13.90;;;;;;;13.08;59.81;98137.38;5054762;28;20095;-70
2023/05/23 04:43:04;;;;;;;19.27;12.35;;;;;;;13.12;59.97;98132.06;5054741;28;20032;-68
2023/05/23 04:45:29;;;;;;;15.30;12.02;;;;;;;13.16;59.98;98127.53;5054714;28;20469;-68
2023/05/23 04:47:55;;;;;;;19.55;12.32;;;;;;;13.20;59.90;98123.00;5054650;28;20661;-68
2023/05/23 04:50:23;;;;;;;18.63;12.05;;;;;;;13.24;60.43;98123.97;5054634;28;20120;-68
2023/05/23 04:52:48;;;;;;;20.35;12.88;;;;;;;13.29;60.12;98129.31;5054452;28;20047;-68
2023/05/23 04:55:14;;;;;;;19.95;12.85;;;;;;;13.34;60.53;98131.09;5054661;28;20021;-68
2023/05/23 04:57:39;;;;;;;21.60;13.30;;;;;;;13.38;60.39;98127.38;5054500;28;20036;-68
2023/05/23 05:00:11;;;;;;;18.30;12.70;;;;;;;13.45;61.07;98128.88;5054530;28;20436;-68
2023/05/23 05:02:37;;;;;;;22.02;13.30;;;;;;;13.53;60.89;98130.81;5054515;28;20029;-68
2023/05/23 05:05:03;;;;;;;19.60;12.85;;;;;;;13.59;60.90;98123.19;5053964;28;20462;-69
2023/05/23 05:07:29;;;;;;;22.60;13.13;;;;;;;13.66;61.28;98129.84;5053524;28;20024;-68
2023/05/23 05:09:55;;;;;;;19.48;12.43;;;;;;;13.69;61.20;98122.88;5054620;28;20082;-68
2023/05/23 05:12:20;;;;;;;20.15;12.57;;;;;;;13.74;61.40;98122.72;5054169;28;20428;-68
2023/05/23 05:14:46;;;;;;;17.25;11.15;;;;;;;13.80;61.51;98128.84;5054158;28;20032;-68
2023/05/23 05:17:11;;;;;;;15.18;11.35;;;;;;;13.88;61.49;98124.47;5054071;28;20021;-68
2023/05/23 05:19:37;;;;;;;16.52;11.45;;;;;;;13.95;61.70;98119.28;5054154;28;20086;-68
2023/05/23 05:22:03;;;;;;;18.63;12.07;;;;;;;14.04;61.88;98119.28;5054286;28;20027;-68
2023/05/23 05:24:28;;;;;;;16.80;11.63;;;;;;;14.12;61.91;98112.91;5053937;28;20047;-69
2023/05/23 05:26:54;;;;;;;16.77;11.57;;;;;;;14.19;62.01;98113.22;5053846;28;20029;-68
2023/05/23 05:29:20;;;;;;;18.77;12.43;;;;;;;14.28;62.02;98115.94;5053824;28;20037;-69
2023/05/23 05:31:45;;;;;;;18.58;12.27;;;;;;;14.36;61.96;98111.56;5053881;28;20033;-69
2023/05/23 05:34:11;;;;;;;17.58;11.38;;;;;;;14.44;62.19;98110.72;5053912;28;20528;-69
2023/05/23 05:36:37;;;;;;;17.05;11.45;;;;;;;14.54;62.31;98112.28;5053969;28;20473;-69
2023/05/23 05:39:03;;;;;;;17.83;11.60;;;;;;;14.63;62.38;98112.25;5052602;28;20032;-69
2023/05/23 05:41:28;;;;;;;21.35;12.50;;;;;;;14.73;62.30;98107.19;5045573;28;20433;-69
2023/05/23 05:43:54;;;;;;;21.00;12.65;;;;;;;14.85;62.01;98120.31;5038103;28;20027;-67
2023/05/23 05:46:19;;;;;;;17.50;11.40;;;;;;;14.98;62.17;98114.84;5045550;28;20020;-67
2023/05/23 05:48:46;;;;;;;16.45;11.88;;;;;;;15.07;62.29;98110.09;5051344;28;20053;-68
2023/05/23 05:51:11;;;;;;;18.85;11.82;;;;;;;15.19;62.22;98112.13;5051627;28;20064;-68
2023/05/23 05:53:36;;;;;;;18.63;12.50;;;;;;;15.29;61.94;98113.66;5050596;28;20115;-67
2023/05/23 05:56:02;;;;;;;23.00;13.77;;;;;;;15.39;61.79;98115.25;5050845;28;20017;-67
2023/05/23 05:58:27;;;;;;;18.02;11.27;;;;;;;15.45;61.66;98116.66;5051733;28;20033;-68
2023/05/23 06:00:53;;;;;;;17.77;12.45;;;;;;;15.53;61.68;98107.47;5051324;28;20068;-67
2023/05/23 06:03:19;;;;;;;17.55;11.30;;;;;;;15.61;61.48;98114.09;5047517;28;20025;-67
2023/05/23 06:05:44;;;;;;;17.75;11.50;;;;;;;15.70;61.47;98100.97;5050364;28;20033;-68
2023/05/23 06:08:10;;;;;;;17.67;10.95;;;;;;;15.77;61.19;98106.78;5049545;28;20036;-68
2023/05/23 06:10:38;;;;;;;16.40;10.77;;;;;;;15.84;61.08;98105.41;5051573;28;20543;-68
2023/05/23 06:13:03;;;;;;;17.45;10.98;;;;;;;15.91;61.41;98105.72;5049736;28;20055;-68
2023/05/23 06:15:29;;;;;;;17.98;10.77;;;;;;;15.98;61.21;98097.69;5049989;28;20459;-68
2023/05/23 06:17:54;;;;;;;15.10;10.05;;;;;;;16.06;61.01;98098.72;5049970;28;20021;-69
2023/05/23 06:20:19;;;;;;;16.08;10.50;;;;;;;16.14;60.92;98097.81;5049914;28;20107;-68
2023/05/23 06:22:45;;;;;;;15.23;10.18;;;;;;;16.21;60.87;98097.25;5050095;28;20480;-68
2023/05/23 06:25:11;;;;;;;14.77;10.27;;;;;;;16.30;60.79;98094.41;5050265;28;20065;-68
2023/05/23 06:27:36;;;;;;;14.02;10.02;;;;;;;16.36;60.81;98085.53;5049669;28;20158;-69
2023/05/23 06:30:03;;;;;;;17.50;10.63;;;;;;;16.46;60.90;98086.25;5049496;28;20032;-68
2023/05/23 06:32:29;;;;;;;17.63;9.90;;;;;;;16.53;60.32;98083.69;5050668;28;20120;-67
2023/05/23 06:34:54;;;;;;;16.13;9.95;;;;;;;16.57;60.37;98087.38;5050502;28;20108;-68
2023/05/23 06:37:19;;;;;;;15.98;10.30;;;;;;;16.62;59.94;98087.16;5047884;28;20037;-68
2023/05/23 06:39:45;;;;;;;15.88;9.85;;;;;;;16.69;59.78;98085.78;5050114;28;20049;-68
2023/05/23 06:42:10;;;;;;;15.40;10.00;;;;;;;16.71;59.81;98084.25;5051822;28;20033;-68
2023/05/23 06:44:36;;;;;;;14.48;10.82;;;;;;;16.76;59.63;98077.69;5052134;28;20028;-68
2023/05/23 06:47:01;;;;;;;16.98;10.38;;;;;;;16.84;60.09;98082.31;5051390;28;20029;-68
2023/05/23 06:49:26;;;;;;;16.70;10.40;;;;;;;16.90;60.01;98080.13;5052118;28;20082;-68
2023/05/23 06:51:52;;;;;;;16.20;10.15;;;;;;;16.98;59.65;98075.63;5052325;28;20112;-70
2023/05/23 06:54:18;;;;;;;12.80;9.30;;;;;;;17.04;59.49;98072.28;5051371;28;20023;-69
2023/05/23 06:56:43;;;;;;;12.80;9.00;;;;;;;17.10;59.27;98072.84;5052168;28;20036;-68
2023/05/23 06:59:09;;;;;;;11.23;8.60;;;;;;;17.17;58.77;98073.06;5048905;28;20181;-69
2023/05/23 07:01:34;;;;;;;13.02;8.85;;;;;;;17.23;58.86;98079.16;5048869;28;20037;-69
2023/05/23 07:03:59;;;;;;;14.60;8.50;;;;;;;17.29;58.58;98072.22;5048497;28;20661;-67
2023/05/23 07:06:28;;;;;;;13.15;8.63;;;;;;;17.35;58.35;98068.06;5047058;28;20033;-69
2023/05/23 07:08:53;;;;;;;13.10;8.32;;;;;;;17.40;58.14;98062.25;5051284;28;20111;-69
2023/05/23 07:11:20;;;;;;;12.75;8.55;;;;;;;17.46;58.37;98062.81;5049114;28;20513;-69
2023/05/23 07:13:46;;;;;;;13.20;8.30;;;;;;;17.50;58.01;98057.38;5046744;28;20067;-69
2023/05/23 07:16:11;;;;;;;12.40;8.68;;;;;;;17.57;57.90;98057.56;5051127;28;20382;-69
2023/05/23 07:18:37;;;;;;;12.88;8.85;;;;;;;17.64;58.05;98054.22;5051907;28;20488;-69
2023/05/23 07:21:02;;;;;;;12.70;9.10;;;;;;;17.70;57.75;98050.03;5049454;28;20036;-68
2023/05/23 07:23:31;;;;;;;13.18;8.23;;;;;;;17.77;57.88;98052.97;5047429;28;20048;-69
2023/05/23 07:25:57;;;;;;;12.05;8.60;;;;;;;17.84;57.67;98047.63;5044349;28;20036;-69
2023/05/23 07:28:22;;;;;;;14.23;8.65;;;;;;;17.91;57.41;98046.22;5048792;28;20040;-73
2023/05/23 07:30:48;;;;;;;14.18;9.20;;;;;;;17.96;57.70;98043.16;5050981;28;20029;-70
2023/05/23 07:33:13;;;;;;;13.15;8.77;;;;;;;18.03;57.60;98045.34;5054585;28;20397;-70
2023/05/23 07:35:39;;;;;;;16.38;8.82;;;;;;;18.09;57.68;98039.19;5054427;28;20559;-70
2023/05/23 07:38:04;;;;;;;13.43;9.80;;;;;;;18.17;58.01;98042.13;5055602;28;20029;-70
2023/05/23 07:40:29;;;;;;;13.07;8.50;;;;;;;18.23;57.62;98041.53;5054716;28;20045;-71
2023/05/23 07:42:55;;;;;;;13.05;7.60;;;;;;;18.30;57.38;98041.72;5052409;28;20053;-73
2023/05/23 07:45:21;;;;;;;13.90;8.73;;;;;;;18.36;57.41;98042.25;5053820;28;20032;-72
2023/05/23 07:47:48;;;;;;;15.05;8.80;;;;;;;18.43;57.21;98044.38;5047002;28;20478;-71
2023/05/23 07:50:13;;;;;;;14.65;9.07;;;;;;;18.49;57.13;98047.72;5051761;28;20029;-73
2023/05/23 07:52:38;;;;;;;15.20;8.55;;;;;;;18.54;57.06;98045.47;5055249;28;20036;-71
2023/05/23 07:55:04;;;;;;;11.38;8.18;;;;;;;18.60;57.15;98043.19;5053863;28;20132;-71
2023/05/23 07:57:30;;;;;;;12.73;8.02;;;;;;;18.66;56.82;98044.53;5053734;28;20057;-70
2023/05/23 07:59:56;;;;;;;12.50;7.93;;;;;;;18.70;57.02;98036.31;5054382;28;20111;-70
2023/05/23 08:02:21;;;;;;;10.48;7.05;;;;;;;18.81;57.26;98042.09;5054597;28;20029;-70
2023/05/23 08:04:47;;;;;;;10.52;7.75;;;;;;;18.89;57.37;98038.34;5052558;28;20366;-70
2023/05/23 08:07:13;;;;;;;12.73;7.55;;;;;;;18.98;57.30;98044.50;5054547;28;20025;-70
2023/05/23 08:09:39;;;;;;;11.75;7.85;;;;;;;19.09;57.27;98038.38;5055057;28;20033;-71
2023/05/23 08:12:05;;;;;;;11.30;7.80;;;;;;;19.20;57.04;98031.09;5054754;28;20028;-70
2023/05/23 08:14:31;;;;;;;10.35;7.78;;;;;;;19.28;56.94;98026.47;5054565;28;20542;-70
2023/05/23 08:16:56;;;;;;;11.35;7.57;;;;;;;19.31;56.71;98032.13;5052733;28;20016;-69
2023/05/23 08:19:22;;;;;;;12.38;7.75;;;;;;;19.41;56.80;98029.91;5055413;28;20024;-70
2023/05/23 08:21:47;;;;;;;9.85;7.72;;;;;;;19.51;57.00;98022.97;5051951;28;20036;-70
2023/05/23 08:24:13;;;;;;;11.57;8.07;;;;;;;19.61;56.94;98023.19;5045863;28;20492;-70
2023/05/23 08:26:39;;;;;;;11.35;7.35;;;;;;;19.69;56.76;98009.41;5053537;28;20037;-70
2023/05/23 08:29:04;;;;;;;10.57;7.70;;;;;;;19.78;56.89;98021.91;5052291;28;20488;-70
2023/05/23 08:31:30;;;;;;;13.63;7.20;;;;;;;19.89;56.71;98015.78;5054185;28;20029;-70
2023/05/23 08:33:56;;;;;;;9.10;7.03;;;;;;;19.97;56.78;98019.47;5051504;28;20025;-69
2023/05/23 08:36:22;;;;;;;13.02;7.63;;;;;;;20.06;56.79;98020.06;5052036;28;20043;-69
2023/05/23 08:38:50;;;;;;;10.13;7.15;;;;;;;20.16;56.54;98015.84;5054586;28;20108;-70
2023/05/23 08:41:18;;;;;;;8.60;6.60;;;;;;;20.25;56.45;98032.28;5053247;28;20453;-71
2023/05/23 08:43:44;;;;;;;10.20;7.07;;;;;;;20.33;55.98;98026.50;5054136;28;20099;-71
2023/05/23 08:46:11;;;;;;;10.98;6.65;;;;;;;20.39;55.68;98021.41;5052472;28;20060;-69
2023/05/23 08:48:38;;;;;;;13.18;6.18;;;;;;;20.51;56.01;98023.16;5052159;28;20037;-69
2023/05/23 08:51:04;;;;;;;9.02;6.25;;;;;;;20.61;55.69;98025.31;5051310;28;20098;-70
2023/05/23 08:53:31;;;;;;;9.25;6.30;;;;;;;20.65;55.34;98015.03;5050923;28;20029;-70
2023/05/23 08:56:01;;;;;;;10.32;6.35;;;;;;;20.75;55.47;98018.38;5050683;28;20404;-69
2023/05/23 08:58:29;;;;;;;7.95;6.30;;;;;;;20.79;54.63;98016.44;5053216;28;20500;-69
2023/05/23 09:00:54;;;;;;;10.13;6.68;;;;;;;20.84;54.61;98023.69;5051129;28;20035;-69
2023/05/23 09:03:21;;;;;;;11.88;7.00;;;;;;;20.92;54.72;98026.22;5052653;28;20632;-71
2023/05/23 09:05:48;;;;;;;8.85;6.60;;;;;;;21.02;54.56;98019.16;5048991;28;20036;-71
2023/05/23 09:08:14;;;;;;;9.60;6.85;;;;;;;21.09;54.62;98018.47;5044744;28;20049;-71
2023/05/23 09:10:41;;;;;;;10.05;6.50;;;;;;;21.19;54.12;98026.19;5051962;28;20039;-71
2023/05/23 09:13:06;;;;;;;9.30;6.90;;;;;;;21.27;53.93;98025.06;5053287;28;20029;-70
2023/05/23 09:15:32;;;;;;;10.55;6.95;;;;;;;21.37;53.87;98025.59;5052918;28;20036;-71
2023/05/23 09:18:00;;;;;;;8.85;6.70;;;;;;;21.46;53.51;98026.13;5052769;28;20029;-71
2023/05/23 09:20:27;;;;;;;10.05;7.25;;;;;;;21.58;53.46;98021.47;5052193;28;20033;-70
2023/05/23 09:22:54;;;;;;;9.15;6.65;;;;;;;21.66;53.19;98015.63;5053120;28;20053;-70
2023/05/23 09:25:19;;;;;;;10.65;6.95;;;;;;;21.73;53.16;98017.66;5052448;28;20104;-70
2023/05/23 09:27:45;;;;;;;9.10;7.68;;;;;;;21.85;52.96;98019.38;5052649;28;20521;-70
2023/05/23 09:30:11;;;;;;;12.88;6.60;;;;;;;21.93;52.74;98017.50;5053000;28;20482;-70
2023/05/23 09:32:37;;;;;;;10.98;6.80;;;;;;;21.98;52.50;98017.16;5052665;28;20041;-70
2023/05/23 09:35:04;;;;;;;8.43;7.20;;;;;;;22.04;52.36;98009.22;5049531;28;20047;-68
2023/05/23 09:37:44;;;;;;;10.65;7.18;;;;;;;22.11;52.88;98010.06;5050008;28;20037;-68
2023/05/23 09:40:12;;;;;;;9.32;6.85;;;;;;;22.23;52.98;97997.81;5047699;28;20120;-68
2023/05/23 09:42:45;;;;;;;10.05;7.30;;;;;;;22.35;53.16;97995.91;5052270;28;20043;-69
2023/05/23 09:45:18;;;;;;;9.13;6.20;;;;;;;22.46;52.98;97991.25;5053968;28;20078;-68
2023/05/23 09:47:52;;;;;;;6.78;5.88;;;;;;;22.50;52.53;97991.25;5048014;28;20040;-68
2023/05/23 09:50:19;;;;;;;8.23;6.90;;;;;;;22.55;52.17;97993.69;5052664;28;20029;-68
2023/05/23 09:52:45;;;;;;;8.60;6.30;;;;;;;22.60;52.00;97984.94;5051723;28;20079;-69
2023/05/23 09:55:11;;;;;;;8.57;6.22;;;;;;;22.66;51.78;97977.81;5052249;28;20033;-68
2023/05/23 09:57:40;;;;;;;10.73;7.00;;;;;;;22.71;51.56;97976.63;5053262;28;20035;-68
2023/05/23 10:00:16;;;;;;;;;;;;;;;22.77;51.50;97983.47;5052084;28;20043;-69
2023/05/23 10:03:09;;;;;;;9.98;6.72;;;;;;;22.82;51.78;97977.50;5051082;28;19917;-69
2023/05/23 10:05:49;;;;;;;12.82;6.20;;;;;;;22.94;51.89;97973.56;5047860;28;20056;-69
2023/05/23 10:08:20;;;;;;;;;;;;;;;23.02;51.52;97966.81;5054098;28;20033;-70
2023/05/23 10:10:55;;;;;;;9.02;5.95;;;;;;;23.10;51.29;97973.25;5053292;28;19917;-70
2023/05/23 10:13:25;;;;;;;9.02;5.78;;;;;;;23.14;50.84;97971.28;5053156;28;20440;-69
2023/05/23 10:16:01;;;;;;;6.75;5.80;;;;;;;23.18;50.32;97969.28;5052120;28;20360;-70
2023/05/23 10:18:29;;;;;;;9.10;5.78;;;;;;;23.24;50.08;97960.56;5053589;28;20111;-70
2023/05/23 10:21:00;;;;;;;10.10;6.00;;;;;;;23.31;50.10;97961.38;5053169;28;20043;-69
2023/05/23 10:23:26;;;;;;;9.63;5.38;;;;;;;23.35;49.53;97961.41;5052308;28;20025;-70
2023/05/23 10:25:52;;;;;;;6.43;5.25;;;;;;;23.42;49.32;97971.81;5046036;28;20052;-70
2023/05/23 10:28:18;;;;;;;7.80;4.97;;;;;;;23.42;48.77;97958.63;5047237;28;20068;-69
2023/05/23 10:30:44;;;;;;;7.13;5.40;;;;;;;23.48;49.08;97967.44;5032030;28;20075;-70
2023/05/23 10:33:14;;;;;;;8.23;5.88;;;;;;;23.55;49.45;97961.84;5033060;28;20022;-70
2023/05/23 10:35:51;;;;;;;9.30;5.35;;;;;;;23.65;49.23;97963.06;5055318;28;20044;-70
2023/05/23 10:38:51;;;;;;;9.18;6.00;;;;;;;23.74;49.20;97962.69;5072095;28;20043;-69
2023/05/23 10:41:30;;;;;;;9.10;5.50;;;;;;;23.89;49.12;97963.50;5070392;28;20108;-68
2023/05/23 10:44:23;;;;;;;9.30;5.70;;;;;;;24.01;49.31;97951.16;5072967;28;20027;-68
2023/05/23 10:46:59;;;;;;;7.40;5.35;;;;;;;24.17;48.96;97956.38;5072147;28;20393;-68
2023/05/23 10:49:42;;;;;;;9.13;5.53;;;;;;;24.33;49.31;97956.75;5072484;28;20067;-68
2023/05/23 10:52:11;;;;;;;8.25;5.75;;;;;;;24.47;48.50;97955.94;5072998;28;20380;-69
2023/05/23 10:54:50;;;;;;;10.43;6.13;;;;;;;24.58;48.50;97964.34;5072433;28;20043;-69
2023/05/23 10:57:20;;;;;;;7.70;5.63;;;;;;;24.66;48.16;97960.31;5062588;28;20280;-69
2023/05/23 10:59:49;;;;;;;7.28;5.50;;;;;;;24.73;48.15;97953.09;5050609;28;20132;-69
2023/05/23 11:02:17;;;;;;;7.15;5.60;;;;;;;24.78;47.51;97955.50;5051274;28;20052;-68
2023/05/23 11:04:44;;;;;;;6.97;4.93;;;;;;;24.79;47.43;97952.31;5051156;28;20017;-68
2023/05/23 11:07:30;;;;;;;7.88;5.32;;;;;;;24.79;47.20;97957.09;5051376;28;20025;-69
2023/05/23 11:10:12;;;;;;;8.30;5.20;;;;;;;24.78;46.74;97950.72;5051659;28;20033;-68
2023/05/23 11:12:41;;;;;;;6.55;5.38;;;;;;;24.78;46.97;97950.72;5051507;28;20512;-68
2023/05/23 11:15:20;;;;;;;6.95;5.15;;;;;;;24.78;47.08;97955.50;5052238;28;20036;-69
2023/05/23 11:17:51;;;;;;;6.18;5.30;;;;;;;24.78;46.63;97941.47;5052194;28;20107;-68
2023/05/23 11:20:22;;;;;;;8.25;5.65;;;;;;;24.77;46.24;97942.69;5052084;28;20037;-69
2023/05/23 11:23:02;;;;;;;8.38;5.63;;;;;;;24.72;46.49;97943.09;5052604;28;20416;-68
2023/05/23 11:25:43;;;;;;;7.95;5.55;;;;;;;24.67;46.14;97939.47;5052410;28;20028;-69